sensor_id;sensor_type;location;lat;lon;timestamp;P1;durP1;ratioP1;P2;durP2;ratioP2
14171;SDS011;7165;52.388;4.928;2024-02-28T00:02:02;6.23;;;5.80;;
14171;SDS011;7165;52.388;4.928;2024-02-28T00:04:29;8.73;;;5.80;;
14171;SDS011;7165;52.388;4.928;2024-02-28T00:06:56;6.97;;;5.60;;
14171;SDS011;7165;52.388;4.928;2024-02-28T00:09:23;6.50;;;6.00;;
14171;SDS011;7165;52.388;4.928;2024-02-28T00:11:50;6.20;;;5.60;;
14171;SDS011;7165;52.388;4.928;2024-02-28T00:14:17;7.50;;;6.90;;
14171;SDS011;7165;52.388;4.928;2024-02-28T00:16:45;8.50;;;7.50;;
14171;SDS011;7165;52.388;4.928;2024-02-28T00:19:14;8.67;;;7.60;;
14171;SDS011;7165;52.388;4.928;2024-02-28T00:21:42;8.63;;;7.60;;
14171;SDS011;7165;52.388;4.928;2024-02-28T00:24:09;8.30;;;7.60;;
14171;SDS011;7165;52.388;4.928;2024-02-28T00:26:37;7.07;;;6.43;;
14171;SDS011;7165;52.388;4.928;2024-02-28T00:29:06;8.87;;;7.10;;
14171;SDS011;7165;52.388;4.928;2024-02-28T00:31:33;8.50;;;7.60;;
14171;SDS011;7165;52.388;4.928;2024-02-28T00:34:00;9.83;;;8.80;;
14171;SDS011;7165;52.388;4.928;2024-02-28T00:36:28;8.77;;;7.97;;
14171;SDS011;7165;52.388;4.928;2024-02-28T00:38:55;9.30;;;8.43;;
14171;SDS011;7165;52.388;4.928;2024-02-28T00:41:22;9.27;;;8.57;;
14171;SDS011;7165;52.388;4.928;2024-02-28T00:43:49;9.33;;;8.53;;
14171;SDS011;7165;52.388;4.928;2024-02-28T00:46:15;10.37;;;9.47;;
14171;SDS011;7165;52.388;4.928;2024-02-28T00:48:42;9.70;;;8.77;;
14171;SDS011;7165;52.388;4.928;2024-02-28T00:51:09;8.97;;;8.07;;
14171;SDS011;7165;52.388;4.928;2024-02-28T00:53:37;9.30;;;8.37;;
14171;SDS011;7165;52.388;4.928;2024-02-28T00:56:04;9.67;;;8.67;;
14171;SDS011;7165;52.388;4.928;2024-02-28T00:58:31;10.70;;;9.57;;
14171;SDS011;7165;52.388;4.928;2024-02-28T01:00:58;10.63;;;9.43;;
14171;SDS011;7165;52.388;4.928;2024-02-28T01:03:25;9.27;;;8.47;;
14171;SDS011;7165;52.388;4.928;2024-02-28T01:05:52;9.60;;;8.63;;
14171;SDS011;7165;52.388;4.928;2024-02-28T01:08:19;9.47;;;8.43;;
14171;SDS011;7165;52.388;4.928;2024-02-28T01:10:47;9.70;;;8.10;;
14171;SDS011;7165;52.388;4.928;2024-02-28T01:13:15;9.37;;;8.60;;
14171;SDS011;7165;52.388;4.928;2024-02-28T01:15:42;10.10;;;9.20;;
14171;SDS011;7165;52.388;4.928;2024-02-28T01:18:09;11.13;;;9.53;;
14171;SDS011;7165;52.388;4.928;2024-02-28T01:20:36;8.97;;;8.27;;
14171;SDS011;7165;52.388;4.928;2024-02-28T01:23:03;15.20;;;10.70;;
14171;SDS011;7165;52.388;4.928;2024-02-28T01:25:30;9.73;;;8.93;;
14171;SDS011;7165;52.388;4.928;2024-02-28T01:27:58;11.00;;;9.37;;
14171;SDS011;7165;52.388;4.928;2024-02-28T01:30:25;9.07;;;8.27;;
14171;SDS011;7165;52.388;4.928;2024-02-28T01:32:52;9.57;;;8.60;;
14171;SDS011;7165;52.388;4.928;2024-02-28T01:35:19;10.27;;;8.67;;
14171;SDS011;7165;52.388;4.928;2024-02-28T01:37:47;11.47;;;8.73;;
14171;SDS011;7165;52.388;4.928;2024-02-28T01:40:14;9.77;;;8.77;;
14171;SDS011;7165;52.388;4.928;2024-02-28T01:42:41;10.43;;;9.33;;
14171;SDS011;7165;52.388;4.928;2024-02-28T01:45:10;10.97;;;9.30;;
14171;SDS011;7165;52.388;4.928;2024-02-28T01:47:40;9.80;;;8.80;;
14171;SDS011;7165;52.388;4.928;2024-02-28T01:50:07;10.77;;;9.60;;
14171;SDS011;7165;52.388;4.928;2024-02-28T01:52:36;10.40;;;9.40;;
14171;SDS011;7165;52.388;4.928;2024-02-28T01:55:03;10.43;;;9.53;;
14171;SDS011;7165;52.388;4.928;2024-02-28T01:57:31;9.83;;;8.93;;
14171;SDS011;7165;52.388;4.928;2024-02-28T02:00:00;18.43;;;8.80;;
14171;SDS011;7165;52.388;4.928;2024-02-28T02:02:28;11.00;;;9.07;;
14171;SDS011;7165;52.388;4.928;2024-02-28T02:04:55;12.27;;;9.17;;
14171;SDS011;7165;52.388;4.928;2024-02-28T02:07:23;10.03;;;9.13;;
14171;SDS011;7165;52.388;4.928;2024-02-28T02:09:51;9.43;;;8.53;;
14171;SDS011;7165;52.388;4.928;2024-02-28T02:12:18;10.37;;;9.13;;
14171;SDS011;7165;52.388;4.928;2024-02-28T02:14:47;9.90;;;9.00;;
14171;SDS011;7165;52.388;4.928;2024-02-28T02:17:14;9.40;;;8.60;;
14171;SDS011;7165;52.388;4.928;2024-02-28T02:19:42;9.17;;;8.00;;
14171;SDS011;7165;52.388;4.928;2024-02-28T02:22:10;9.40;;;8.50;;
14171;SDS011;7165;52.388;4.928;2024-02-28T02:24:41;10.80;;;9.63;;
14171;SDS011;7165;52.388;4.928;2024-02-28T02:27:08;10.07;;;9.07;;
14171;SDS011;7165;52.388;4.928;2024-02-28T02:29:35;10.07;;;9.17;;
14171;SDS011;7165;52.388;4.928;2024-02-28T02:32:01;11.13;;;9.50;;
14171;SDS011;7165;52.388;4.928;2024-02-28T02:34:28;11.30;;;8.80;;
14171;SDS011;7165;52.388;4.928;2024-02-28T02:36:55;10.93;;;9.27;;
14171;SDS011;7165;52.388;4.928;2024-02-28T02:39:22;11.33;;;10.33;;
14171;SDS011;7165;52.388;4.928;2024-02-28T02:41:50;10.80;;;8.87;;
14171;SDS011;7165;52.388;4.928;2024-02-28T02:44:17;9.17;;;8.47;;
14171;SDS011;7165;52.388;4.928;2024-02-28T02:46:44;10.13;;;9.10;;
14171;SDS011;7165;52.388;4.928;2024-02-28T02:49:11;10.30;;;9.33;;
14171;SDS011;7165;52.388;4.928;2024-02-28T02:51:38;9.50;;;8.63;;
14171;SDS011;7165;52.388;4.928;2024-02-28T02:54:07;9.97;;;9.03;;
14171;SDS011;7165;52.388;4.928;2024-02-28T02:56:34;10.37;;;8.67;;
14171;SDS011;7165;52.388;4.928;2024-02-28T02:59:02;10.23;;;9.30;;
14171;SDS011;7165;52.388;4.928;2024-02-28T03:01:29;10.03;;;9.10;;
14171;SDS011;7165;52.388;4.928;2024-02-28T03:03:56;10.10;;;9.20;;
14171;SDS011;7165;52.388;4.928;2024-02-28T03:06:23;11.13;;;10.03;;
14171;SDS011;7165;52.388;4.928;2024-02-28T03:08:50;12.30;;;9.43;;
14171;SDS011;7165;52.388;4.928;2024-02-28T03:11:17;16.63;;;10.00;;
14171;SDS011;7165;52.388;4.928;2024-02-28T03:13:43;12.13;;;10.73;;
14171;SDS011;7165;52.388;4.928;2024-02-28T03:16:12;11.17;;;10.07;;
14171;SDS011;7165;52.388;4.928;2024-02-28T03:18:38;11.70;;;10.60;;
14171;SDS011;7165;52.388;4.928;2024-02-28T03:21:05;11.60;;;10.57;;
14171;SDS011;7165;52.388;4.928;2024-02-28T03:23:32;12.17;;;11.07;;
14171;SDS011;7165;52.388;4.928;2024-02-28T03:26:01;12.67;;;11.47;;
14171;SDS011;7165;52.388;4.928;2024-02-28T03:28:28;13.13;;;11.63;;
14171;SDS011;7165;52.388;4.928;2024-02-28T03:30:55;16.70;;;12.30;;
14171;SDS011;7165;52.388;4.928;2024-02-28T03:33:23;13.20;;;12.00;;
14171;SDS011;7165;52.388;4.928;2024-02-28T03:35:51;12.50;;;11.23;;
14171;SDS011;7165;52.388;4.928;2024-02-28T03:38:18;17.03;;;12.03;;
14171;SDS011;7165;52.388;4.928;2024-02-28T03:40:44;15.77;;;11.80;;
14171;SDS011;7165;52.388;4.928;2024-02-28T03:43:11;15.93;;;12.77;;
14171;SDS011;7165;52.388;4.928;2024-02-28T03:45:39;15.03;;;11.87;;
14171;SDS011;7165;52.388;4.928;2024-02-28T03:48:06;14.33;;;12.93;;
14171;SDS011;7165;52.388;4.928;2024-02-28T03:50:34;13.60;;;12.20;;
14171;SDS011;7165;52.388;4.928;2024-02-28T07:07:01;27.35;;;24.40;;
14171;SDS011;7165;52.388;4.928;2024-02-28T07:14:24;27.60;;;24.27;;
14171;SDS011;7165;52.388;4.928;2024-02-28T07:16:52;29.00;;;26.07;;
14171;SDS011;7165;52.388;4.928;2024-02-28T07:19:19;30.87;;;24.77;;
14171;SDS011;7165;52.388;4.928;2024-02-28T07:21:46;30.07;;;26.00;;
14171;SDS011;7165;52.388;4.928;2024-02-28T07:24:13;30.63;;;26.00;;
14171;SDS011;7165;52.388;4.928;2024-02-28T07:26:40;31.30;;;27.90;;
14171;SDS011;7165;52.388;4.928;2024-02-28T07:29:07;30.30;;;27.10;;
14171;SDS011;7165;52.388;4.928;2024-02-28T07:31:34;31.13;;;27.37;;
14171;SDS011;7165;52.388;4.928;2024-02-28T07:34:02;32.33;;;27.93;;
14171;SDS011;7165;52.388;4.928;2024-02-28T07:36:30;30.57;;;27.23;;
14171;SDS011;7165;52.388;4.928;2024-02-28T07:38:56;30.80;;;27.50;;
14171;SDS011;7165;52.388;4.928;2024-02-28T07:41:23;30.20;;;27.10;;
14171;SDS011;7165;52.388;4.928;2024-02-28T07:43:50;31.93;;;28.53;;
14171;SDS011;7165;52.388;4.928;2024-02-28T07:46:17;33.17;;;28.77;;
14171;SDS011;7165;52.388;4.928;2024-02-28T07:48:44;34.23;;;28.57;;
14171;SDS011;7165;52.388;4.928;2024-02-28T07:51:12;34.93;;;29.17;;
14171;SDS011;7165;52.388;4.928;2024-02-28T07:53:40;34.20;;;28.10;;
14171;SDS011;7165;52.388;4.928;2024-02-28T07:56:07;33.83;;;30.30;;
14171;SDS011;7165;52.388;4.928;2024-02-28T07:58:42;34.70;;;31.00;;
14171;SDS011;7165;52.388;4.928;2024-02-28T08:01:09;33.23;;;29.87;;
14171;SDS011;7165;52.388;4.928;2024-02-28T08:03:36;34.73;;;29.23;;
14171;SDS011;7165;52.388;4.928;2024-02-28T08:06:03;33.53;;;29.90;;
14171;SDS011;7165;52.388;4.928;2024-02-28T08:08:32;34.80;;;31.20;;
14171;SDS011;7165;52.388;4.928;2024-02-28T08:10:59;32.67;;;29.37;;
14171;SDS011;7165;52.388;4.928;2024-02-28T08:13:25;33.57;;;30.07;;
14171;SDS011;7165;52.388;4.928;2024-02-28T08:15:53;34.07;;;30.57;;
14171;SDS011;7165;52.388;4.928;2024-02-28T08:18:20;34.20;;;30.60;;
14171;SDS011;7165;52.388;4.928;2024-02-28T08:23:22;31.07;;;27.77;;
14171;SDS011;7165;52.388;4.928;2024-02-28T08:25:50;33.87;;;28.17;;
14171;SDS011;7165;52.388;4.928;2024-02-28T08:28:17;37.67;;;30.10;;
14171;SDS011;7165;52.388;4.928;2024-02-28T08:30:45;30.83;;;27.73;;
14171;SDS011;7165;52.388;4.928;2024-02-28T08:33:11;31.67;;;27.87;;
14171;SDS011;7165;52.388;4.928;2024-02-28T08:35:38;32.67;;;29.17;;
14171;SDS011;7165;52.388;4.928;2024-02-28T08:38:05;33.40;;;29.83;;
14171;SDS011;7165;52.388;4.928;2024-02-28T08:40:32;31.47;;;28.07;;
14171;SDS011;7165;52.388;4.928;2024-02-28T08:43:00;31.77;;;28.47;;
14171;SDS011;7165;52.388;4.928;2024-02-28T08:47:54;33.10;;;28.80;;
14171;SDS011;7165;52.388;4.928;2024-02-28T08:50:22;32.43;;;29.00;;
14171;SDS011;7165;52.388;4.928;2024-02-28T08:52:49;30.70;;;27.60;;
14171;SDS011;7165;52.388;4.928;2024-02-28T08:55:16;31.40;;;28.30;;
14171;SDS011;7165;52.388;4.928;2024-02-28T08:57:45;31.50;;;28.20;;
14171;SDS011;7165;52.388;4.928;2024-02-28T09:00:14;32.38;;;29.17;;
14171;SDS011;7165;52.388;4.928;2024-02-28T09:02:41;32.83;;;29.73;;
14171;SDS011;7165;52.388;4.928;2024-02-28T09:05:08;30.15;;;27.35;;
14171;SDS011;7165;52.388;4.928;2024-02-28T09:07:35;30.05;;;27.30;;
14171;SDS011;7165;52.388;4.928;2024-02-28T09:10:03;31.30;;;28.20;;
14171;SDS011;7165;52.388;4.928;2024-02-28T09:12:31;28.70;;;25.98;;
14171;SDS011;7165;52.388;4.928;2024-02-28T09:14:58;31.00;;;27.90;;
14171;SDS011;7165;52.388;4.928;2024-02-28T09:17:29;29.23;;;26.17;;
14171;SDS011;7165;52.388;4.928;2024-02-28T09:19:56;29.23;;;26.38;;
14171;SDS011;7165;52.388;4.928;2024-02-28T09:22:25;29.83;;;26.80;;
14171;SDS011;7165;52.388;4.928;2024-02-28T09:24:52;29.17;;;25.85;;
14171;SDS011;7165;52.388;4.928;2024-02-28T09:27:19;28.67;;;26.02;;
14171;SDS011;7165;52.388;4.928;2024-02-28T09:29:46;27.35;;;24.45;;
14171;SDS011;7165;52.388;4.928;2024-02-28T09:32:13;27.50;;;24.15;;
14171;SDS011;7165;52.388;4.928;2024-02-28T09:34:42;27.83;;;24.73;;
14171;SDS011;7165;52.388;4.928;2024-02-28T09:37:09;27.77;;;24.98;;
14171;SDS011;7165;52.388;4.928;2024-02-28T09:39:37;28.95;;;24.77;;
14171;SDS011;7165;52.388;4.928;2024-02-28T09:42:05;28.08;;;25.10;;
14171;SDS011;7165;52.388;4.928;2024-02-28T09:44:31;27.95;;;25.33;;
14171;SDS011;7165;52.388;4.928;2024-02-28T09:47:00;28.27;;;24.70;;
14171;SDS011;7165;52.388;4.928;2024-02-28T09:49:26;27.75;;;24.58;;
14171;SDS011;7165;52.388;4.928;2024-02-28T09:51:58;26.48;;;22.65;;
14171;SDS011;7165;52.388;4.928;2024-02-28T09:54:25;23.77;;;21.40;;
14171;SDS011;7165;52.388;4.928;2024-02-28T09:56:52;24.80;;;22.37;;
14171;SDS011;7165;52.388;4.928;2024-02-28T09:59:20;23.67;;;21.35;;
14171;SDS011;7165;52.388;4.928;2024-02-28T10:01:52;25.15;;;21.58;;
14171;SDS011;7165;52.388;4.928;2024-02-28T10:16:38;24.52;;;22.10;;
14171;SDS011;7165;52.388;4.928;2024-02-28T10:19:05;23.88;;;20.95;;
14171;SDS011;7165;52.388;4.928;2024-02-28T10:41:11;24.55;;;22.10;;
14171;SDS011;7165;52.388;4.928;2024-02-28T10:43:42;24.17;;;21.65;;
14171;SDS011;7165;52.388;4.928;2024-02-28T10:46:10;24.10;;;21.75;;
14171;SDS011;7165;52.388;4.928;2024-02-28T10:48:40;25.13;;;22.83;;
14171;SDS011;7165;52.388;4.928;2024-02-28T10:51:07;24.85;;;22.30;;
14171;SDS011;7165;52.388;4.928;2024-02-28T10:53:36;23.58;;;21.23;;
14171;SDS011;7165;52.388;4.928;2024-02-28T10:56:09;24.77;;;22.15;;
14171;SDS011;7165;52.388;4.928;2024-02-28T11:01:13;23.50;;;21.10;;
14171;SDS011;7165;52.388;4.928;2024-02-28T11:03:40;26.15;;;23.40;;
14171;SDS011;7165;52.388;4.928;2024-02-28T11:06:15;24.35;;;21.73;;
14171;SDS011;7165;52.388;4.928;2024-02-28T11:08:45;23.20;;;21.08;;
14171;SDS011;7165;52.388;4.928;2024-02-28T11:11:13;22.77;;;20.63;;
14171;SDS011;7165;52.388;4.928;2024-02-28T11:13:50;22.98;;;20.65;;
14171;SDS011;7165;52.388;4.928;2024-02-28T11:16:25;23.88;;;21.30;;
14171;SDS011;7165;52.388;4.928;2024-02-28T11:18:53;21.75;;;19.63;;
14171;SDS011;7165;52.388;4.928;2024-02-28T11:21:22;22.75;;;20.10;;
14171;SDS011;7165;52.388;4.928;2024-02-28T11:23:49;24.37;;;22.00;;
14171;SDS011;7165;52.388;4.928;2024-02-28T11:26:16;22.50;;;20.60;;
14171;SDS011;7165;52.388;4.928;2024-02-28T11:28:45;21.90;;;19.73;;
14171;SDS011;7165;52.388;4.928;2024-02-28T11:31:12;25.48;;;20.85;;
14171;SDS011;7165;52.388;4.928;2024-02-28T11:33:41;21.63;;;19.67;;
14171;SDS011;7165;52.388;4.928;2024-02-28T16:47:41;32.40;;;29.15;;
14171;SDS011;7165;52.388;4.928;2024-02-28T16:52:35;32.50;;;28.83;;
14171;SDS011;7165;52.388;4.928;2024-02-28T16:55:02;30.83;;;27.73;;
14171;SDS011;7165;52.388;4.928;2024-02-28T16:57:30;31.38;;;28.23;;
14171;SDS011;7165;52.388;4.928;2024-02-28T16:59:58;31.35;;;28.15;;
14171;SDS011;7165;52.388;4.928;2024-02-28T17:02:25;32.90;;;29.35;;
14171;SDS011;7165;52.388;4.928;2024-02-28T17:04:52;31.90;;;28.70;;
14171;SDS011;7165;52.388;4.928;2024-02-28T17:07:19;33.63;;;30.23;;
14171;SDS011;7165;52.388;4.928;2024-02-28T17:09:46;32.73;;;29.33;;
14171;SDS011;7165;52.388;4.928;2024-02-28T17:12:12;31.33;;;28.20;;
14171;SDS011;7165;52.388;4.928;2024-02-28T17:14:40;32.10;;;28.95;;
14171;SDS011;7165;52.388;4.928;2024-02-28T17:17:08;33.45;;;29.95;;
14171;SDS011;7165;52.388;4.928;2024-02-28T17:19:36;33.92;;;30.42;;
14171;SDS011;7165;52.388;4.928;2024-02-28T17:22:03;31.52;;;28.38;;
14171;SDS011;7165;52.388;4.928;2024-02-28T17:24:32;31.42;;;28.33;;
14171;SDS011;7165;52.388;4.928;2024-02-28T17:26:59;32.60;;;29.42;;
14171;SDS011;7165;52.388;4.928;2024-02-28T17:29:26;34.53;;;30.92;;
14171;SDS011;7165;52.388;4.928;2024-02-28T17:31:53;34.35;;;30.85;;
14171;SDS011;7165;52.388;4.928;2024-02-28T17:34:21;33.15;;;29.75;;
14171;SDS011;7165;52.388;4.928;2024-02-28T17:36:48;34.58;;;31.17;;
14171;SDS011;7165;52.388;4.928;2024-02-28T17:39:15;35.15;;;31.55;;
14171;SDS011;7165;52.388;4.928;2024-02-28T17:41:42;35.03;;;31.45;;
14171;SDS011;7165;52.388;4.928;2024-02-28T17:44:10;36.28;;;32.65;;
14171;SDS011;7165;52.388;4.928;2024-02-28T17:46:37;34.95;;;31.35;;
14171;SDS011;7165;52.388;4.928;2024-02-28T17:49:04;35.42;;;31.58;;
14171;SDS011;7165;52.388;4.928;2024-02-28T17:51:33;37.00;;;33.30;;
14171;SDS011;7165;52.388;4.928;2024-02-28T17:56:29;36.78;;;33.05;;
14171;SDS011;7165;52.388;4.928;2024-02-28T17:58:57;35.45;;;31.80;;
14171;SDS011;7165;52.388;4.928;2024-02-28T18:01:24;35.80;;;32.08;;
14171;SDS011;7165;52.388;4.928;2024-02-28T18:03:51;37.78;;;33.90;;
14171;SDS011;7165;52.388;4.928;2024-02-28T18:06:18;38.10;;;34.03;;
14171;SDS011;7165;52.388;4.928;2024-02-28T18:08:46;40.08;;;35.75;;
14171;SDS011;7165;52.388;4.928;2024-02-28T18:11:13;39.47;;;35.33;;
14171;SDS011;7165;52.388;4.928;2024-02-28T18:13:40;39.75;;;35.65;;
14171;SDS011;7165;52.388;4.928;2024-02-28T18:16:07;41.10;;;36.45;;
14171;SDS011;7165;52.388;4.928;2024-02-28T18:18:34;38.42;;;34.53;;
14171;SDS011;7165;52.388;4.928;2024-02-28T18:21:01;40.00;;;35.17;;
14171;SDS011;7165;52.388;4.928;2024-02-28T18:23:28;41.45;;;36.95;;
14171;SDS011;7165;52.388;4.928;2024-02-28T18:25:56;38.45;;;34.55;;
14171;SDS011;7165;52.388;4.928;2024-02-28T18:28:23;36.10;;;32.60;;
14171;SDS011;7165;52.388;4.928;2024-02-28T18:30:53;37.40;;;33.60;;
14171;SDS011;7165;52.388;4.928;2024-02-28T18:33:20;36.70;;;31.88;;
14171;SDS011;7165;52.388;4.928;2024-02-28T18:35:46;34.03;;;30.52;;
14171;SDS011;7165;52.388;4.928;2024-02-28T18:38:14;33.97;;;30.20;;
14171;SDS011;7165;52.388;4.928;2024-02-28T18:40:40;32.70;;;29.42;;
14171;SDS011;7165;52.388;4.928;2024-02-28T18:43:09;32.33;;;25.85;;
14171;SDS011;7165;52.388;4.928;2024-02-28T18:45:37;29.58;;;26.52;;
14171;SDS011;7165;52.388;4.928;2024-02-28T18:48:04;28.38;;;25.33;;
14171;SDS011;7165;52.388;4.928;2024-02-28T18:50:32;28.58;;;25.67;;
14171;SDS011;7165;52.388;4.928;2024-02-28T18:52:59;27.97;;;25.07;;
14171;SDS011;7165;52.388;4.928;2024-02-28T18:55:26;29.75;;;25.40;;
14171;SDS011;7165;52.388;4.928;2024-02-28T18:57:54;28.80;;;25.65;;
14171;SDS011;7165;52.388;4.928;2024-02-28T19:00:24;30.25;;;27.08;;
14171;SDS011;7165;52.388;4.928;2024-02-28T19:02:52;27.00;;;24.25;;
14171;SDS011;7165;52.388;4.928;2024-02-28T19:05:21;27.98;;;25.05;;
14171;SDS011;7165;52.388;4.928;2024-02-28T19:07:48;26.63;;;23.80;;
14171;SDS011;7165;52.388;4.928;2024-02-28T19:10:16;28.65;;;23.15;;
14171;SDS011;7165;52.388;4.928;2024-02-28T19:12:43;27.00;;;24.17;;
14171;SDS011;7165;52.388;4.928;2024-02-28T19:15:11;26.23;;;23.53;;
14171;SDS011;7165;52.388;4.928;2024-02-28T19:17:40;25.55;;;22.83;;
14171;SDS011;7165;52.388;4.928;2024-02-28T19:20:07;25.00;;;22.58;;
14171;SDS011;7165;52.388;4.928;2024-02-28T19:22:35;23.10;;;20.60;;
14171;SDS011;7165;52.388;4.928;2024-02-28T19:25:02;24.70;;;21.92;;
14171;SDS011;7165;52.388;4.928;2024-02-28T19:27:29;26.00;;;22.33;;
14171;SDS011;7165;52.388;4.928;2024-02-28T19:29:56;24.48;;;22.08;;
14171;SDS011;7165;52.388;4.928;2024-02-28T19:32:23;25.40;;;22.90;;
14171;SDS011;7165;52.388;4.928;2024-02-28T19:34:52;25.23;;;22.80;;
14171;SDS011;7165;52.388;4.928;2024-02-28T19:37:19;23.92;;;21.45;;
14171;SDS011;7165;52.388;4.928;2024-02-28T19:39:45;26.17;;;23.05;;
14171;SDS011;7165;52.388;4.928;2024-02-28T19:42:14;22.02;;;20.00;;
14171;SDS011;7165;52.388;4.928;2024-02-28T19:44:41;22.00;;;19.85;;
14171;SDS011;7165;52.388;4.928;2024-02-28T19:47:08;23.15;;;20.88;;
14171;SDS011;7165;52.388;4.928;2024-02-28T19:49:35;22.42;;;20.23;;
14171;SDS011;7165;52.388;4.928;2024-02-28T19:52:03;22.05;;;19.83;;
14171;SDS011;7165;52.388;4.928;2024-02-28T19:54:30;21.85;;;19.63;;
14171;SDS011;7165;52.388;4.928;2024-02-28T19:56:58;21.00;;;19.10;;
14171;SDS011;7165;52.388;4.928;2024-02-28T19:59:25;20.55;;;18.45;;
14171;SDS011;7165;52.388;4.928;2024-02-28T20:01:52;21.48;;;19.17;;
14171;SDS011;7165;52.388;4.928;2024-02-28T20:04:19;21.80;;;19.45;;
14171;SDS011;7165;52.388;4.928;2024-02-28T20:06:46;20.30;;;18.40;;
14171;SDS011;7165;52.388;4.928;2024-02-28T20:09:14;20.02;;;18.30;;
14171;SDS011;7165;52.388;4.928;2024-02-28T20:11:41;19.90;;;18.00;;
14171;SDS011;7165;52.388;4.928;2024-02-28T20:14:08;21.73;;;19.42;;
14171;SDS011;7165;52.388;4.928;2024-02-28T20:16:35;19.30;;;17.30;;
14171;SDS011;7165;52.388;4.928;2024-02-28T20:19:02;21.45;;;19.48;;
14171;SDS011;7165;52.388;4.928;2024-02-28T20:21:29;20.45;;;18.33;;
14171;SDS011;7165;52.388;4.928;2024-02-28T20:23:56;21.33;;;18.77;;
14171;SDS011;7165;52.388;4.928;2024-02-28T20:26:24;20.75;;;18.80;;
14171;SDS011;7165;52.388;4.928;2024-02-28T20:28:51;20.73;;;18.17;;
14171;SDS011;7165;52.388;4.928;2024-02-28T20:31:18;20.92;;;18.10;;
14171;SDS011;7165;52.388;4.928;2024-02-28T20:33:47;20.08;;;18.20;;
14171;SDS011;7165;52.388;4.928;2024-02-28T20:36:14;19.88;;;18.00;;
14171;SDS011;7165;52.388;4.928;2024-02-28T20:38:41;18.60;;;16.63;;
14171;SDS011;7165;52.388;4.928;2024-02-28T20:41:07;18.17;;;16.45;;
14171;SDS011;7165;52.388;4.928;2024-02-28T20:43:36;17.42;;;15.65;;
14171;SDS011;7165;52.388;4.928;2024-02-28T20:46:03;17.70;;;15.90;;
14171;SDS011;7165;52.388;4.928;2024-02-28T20:48:30;17.95;;;16.05;;
14171;SDS011;7165;52.388;4.928;2024-02-28T20:50:57;15.77;;;14.27;;
14171;SDS011;7165;52.388;4.928;2024-02-28T20:53:25;15.93;;;14.32;;
14171;SDS011;7165;52.388;4.928;2024-02-28T20:55:52;16.23;;;14.73;;
14171;SDS011;7165;52.388;4.928;2024-02-28T20:58:20;17.67;;;15.98;;
14171;SDS011;7165;52.388;4.928;2024-02-28T21:00:48;16.83;;;15.05;;
14171;SDS011;7165;52.388;4.928;2024-02-28T21:03:16;18.77;;;17.05;;
14171;SDS011;7165;52.388;4.928;2024-02-28T21:05:43;17.50;;;15.95;;
14171;SDS011;7165;52.388;4.928;2024-02-28T21:08:10;16.48;;;15.07;;
14171;SDS011;7165;52.388;4.928;2024-02-28T21:10:37;20.45;;;16.50;;
14171;SDS011;7165;52.388;4.928;2024-02-28T21:13:04;16.23;;;14.75;;
14171;SDS011;7165;52.388;4.928;2024-02-28T21:15:30;16.63;;;15.15;;
14171;SDS011;7165;52.388;4.928;2024-02-28T21:17:59;18.15;;;16.35;;
14171;SDS011;7165;52.388;4.928;2024-02-28T21:20:26;16.33;;;14.82;;
14171;SDS011;7165;52.388;4.928;2024-02-28T21:22:53;17.40;;;15.70;;
14171;SDS011;7165;52.388;4.928;2024-02-28T21:25:20;15.23;;;13.73;;
14171;SDS011;7165;52.388;4.928;2024-02-28T21:27:47;17.65;;;15.85;;
14171;SDS011;7165;52.388;4.928;2024-02-28T21:30:14;16.87;;;15.17;;
14171;SDS011;7165;52.388;4.928;2024-02-28T21:32:41;17.15;;;15.60;;
14171;SDS011;7165;52.388;4.928;2024-02-28T21:35:10;17.02;;;15.25;;
14171;SDS011;7165;52.388;4.928;2024-02-28T21:37:39;15.35;;;13.95;;
14171;SDS011;7165;52.388;4.928;2024-02-28T21:40:06;15.68;;;14.32;;
14171;SDS011;7165;52.388;4.928;2024-02-28T21:42:33;15.05;;;13.50;;
14171;SDS011;7165;52.388;4.928;2024-02-28T21:45:00;16.10;;;14.40;;
14171;SDS011;7165;52.388;4.928;2024-02-28T21:47:28;18.60;;;14.75;;
14171;SDS011;7165;52.388;4.928;2024-02-28T21:49:54;15.20;;;13.80;;
14171;SDS011;7165;52.388;4.928;2024-02-28T21:52:23;16.95;;;15.35;;
14171;SDS011;7165;52.388;4.928;2024-02-28T21:54:50;17.77;;;15.98;;
14171;SDS011;7165;52.388;4.928;2024-02-28T21:57:17;16.35;;;14.85;;
14171;SDS011;7165;52.388;4.928;2024-02-28T21:59:44;16.55;;;15.07;;
14171;SDS011;7165;52.388;4.928;2024-02-28T22:02:11;17.27;;;15.77;;
14171;SDS011;7165;52.388;4.928;2024-02-28T22:04:38;17.65;;;15.88;;
14171;SDS011;7165;52.388;4.928;2024-02-28T22:07:05;18.10;;;16.45;;
14171;SDS011;7165;52.388;4.928;2024-02-28T22:09:33;15.95;;;14.38;;
14171;SDS011;7165;52.388;4.928;2024-02-28T22:12:00;16.08;;;14.43;;
14171;SDS011;7165;52.388;4.928;2024-02-28T22:14:27;15.82;;;14.32;;
14171;SDS011;7165;52.388;4.928;2024-02-28T22:16:54;14.68;;;13.40;;
14171;SDS011;7165;52.388;4.928;2024-02-28T22:19:21;15.15;;;13.73;;
14171;SDS011;7165;52.388;4.928;2024-02-28T22:21:48;14.88;;;13.38;;
14171;SDS011;7165;52.388;4.928;2024-02-28T22:24:14;14.35;;;13.05;;
14171;SDS011;7165;52.388;4.928;2024-02-28T22:26:43;15.45;;;13.95;;
14171;SDS011;7165;52.388;4.928;2024-02-28T22:29:09;15.25;;;13.85;;
14171;SDS011;7165;52.388;4.928;2024-02-28T22:31:36;14.45;;;13.15;;
14171;SDS011;7165;52.388;4.928;2024-02-28T22:34:03;13.95;;;12.68;;
14171;SDS011;7165;52.388;4.928;2024-02-28T22:36:30;15.10;;;13.70;;
14171;SDS011;7165;52.388;4.928;2024-02-28T22:38:57;15.32;;;13.93;;
14171;SDS011;7165;52.388;4.928;2024-02-28T22:41:24;15.67;;;14.27;;
14171;SDS011;7165;52.388;4.928;2024-02-28T22:43:52;17.90;;;14.40;;
14171;SDS011;7165;52.388;4.928;2024-02-28T22:46:19;16.60;;;15.00;;
14171;SDS011;7165;52.388;4.928;2024-02-28T22:48:46;16.02;;;14.38;;
14171;SDS011;7165;52.388;4.928;2024-02-28T22:51:13;20.98;;;15.65;;
14171;SDS011;7165;52.388;4.928;2024-02-28T22:53:40;20.52;;;15.95;;
14171;SDS011;7165;52.388;4.928;2024-02-28T22:56:07;17.45;;;15.75;;
14171;SDS011;7165;52.388;4.928;2024-02-28T22:58:34;17.10;;;15.45;;
14171;SDS011;7165;52.388;4.928;2024-02-28T23:01:02;20.90;;;17.48;;
14171;SDS011;7165;52.388;4.928;2024-02-28T23:03:29;19.50;;;16.98;;
14171;SDS011;7165;52.388;4.928;2024-02-28T23:05:56;19.85;;;17.95;;
14171;SDS011;7165;52.388;4.928;2024-02-28T23:08:25;18.02;;;15.77;;
14171;SDS011;7165;52.388;4.928;2024-02-28T23:10:52;20.10;;;17.90;;
14171;SDS011;7165;52.388;4.928;2024-02-28T23:13:19;19.33;;;17.30;;
14171;SDS011;7165;52.388;4.928;2024-02-28T23:15:45;18.23;;;16.33;;
14171;SDS011;7165;52.388;4.928;2024-02-28T23:18:14;19.83;;;17.73;;
14171;SDS011;7165;52.388;4.928;2024-02-28T23:20:42;19.05;;;17.25;;
14171;SDS011;7165;52.388;4.928;2024-02-28T23:23:10;20.13;;;17.90;;
14171;SDS011;7165;52.388;4.928;2024-02-28T23:25:37;19.73;;;17.67;;
14171;SDS011;7165;52.388;4.928;2024-02-28T23:28:05;23.10;;;18.10;;
14171;SDS011;7165;52.388;4.928;2024-02-28T23:30:33;21.42;;;19.23;;
14171;SDS011;7165;52.388;4.928;2024-02-28T23:33:00;20.95;;;17.80;;
14171;SDS011;7165;52.388;4.928;2024-02-28T23:35:31;19.97;;;18.10;;
14171;SDS011;7165;52.388;4.928;2024-02-28T23:37:59;19.70;;;17.83;;
14171;SDS011;7165;52.388;4.928;2024-02-28T23:40:26;19.88;;;17.88;;
14171;SDS011;7165;52.388;4.928;2024-02-28T23:42:52;19.63;;;17.70;;
14171;SDS011;7165;52.388;4.928;2024-02-28T23:45:19;21.90;;;18.85;;
14171;SDS011;7165;52.388;4.928;2024-02-28T23:47:46;19.90;;;17.15;;
14171;SDS011;7165;52.388;4.928;2024-02-28T23:50:13;20.00;;;17.92;;
14171;SDS011;7165;52.388;4.928;2024-02-28T23:52:42;23.42;;;20.70;;
14171;SDS011;7165;52.388;4.928;2024-02-28T23:55:11;21.13;;;18.58;;